Time;durP1;ratioP1;P1;durP2;ratioP2;P2;SDS_P1;SDS_P2;PMS_P1;PMS_P2;Temp;Humidity;BMP_temperature;BMP_pressure;BME280_temperature;BME280_humidity;BME280_pressure;Samples;Min_cycle;Max_cycle;Signal;HPM_P1;HPM_P2
2022/06/10 04:02:53;;;;;;;6.12;4.80;;;;;;;17.11;100.00;100028.66;5340435;33;20006;-87
2022/06/10 04:05:56;;;;;;;6.30;4.75;;;;;;;17.13;100.00;100026.53;5345521;33;35432;-88
2022/06/10 04:09:19;;;;;;;5.55;4.43;;;;;;;17.11;100.00;100025.94;5333362;33;33941;-89
2022/06/10 04:12:23;;;;;;;6.35;4.45;;;;;;;17.15;100.00;100033.41;5344539;33;34297;-86
2022/06/10 04:15:27;;;;;;;4.68;4.10;;;;;;;17.16;100.00;100031.53;5345020;33;33624;-86
2022/06/10 04:18:30;;;;;;;5.12;4.62;;;;;;;17.18;100.00;100037.56;5344279;33;33416;-86
2022/06/10 04:21:33;;;;;;;5.47;4.07;;;;;;;17.20;100.00;100039.00;5344064;33;34503;-87
2022/06/10 04:24:36;;;;;;;4.60;4.15;;;;;;;17.17;100.00;100035.88;5336434;33;33961;-86
2022/06/10 04:27:41;;;;;;;4.85;4.20;;;;;;;17.22;100.00;100050.47;5342168;33;34001;-87
2022/06/10 04:30:46;;;;;;;4.15;3.75;;;;;;;17.20;100.00;100062.66;5343468;33;33999;-87
2022/06/10 04:33:49;;;;;;;5.32;3.92;;;;;;;17.13;100.00;100056.47;5341737;33;34160;-87
2022/06/10 04:36:52;;;;;;;4.37;3.97;;;;;;;17.06;100.00;100066.59;5343047;33;34478;-86
2022/06/10 04:39:54;;;;;;;4.35;3.90;;;;;;;17.03;100.00;100070.59;5318702;33;33002;-86
2022/06/10 04:42:58;;;;;;;8.30;4.25;;;;;;;17.09;100.00;100072.41;5337028;33;33890;-86
2022/06/10 04:46:03;;;;;;;4.65;4.10;;;;;;;17.20;100.00;100081.72;5325460;33;33754;-86
2022/06/10 04:49:06;;;;;;;5.00;4.22;;;;;;;17.30;100.00;100076.53;5324853;33;32299;-86
2022/06/10 04:52:09;;;;;;;5.10;4.32;;;;;;;17.34;100.00;100088.63;5343540;33;34015;-86
2022/06/10 04:55:12;;;;;;;4.80;4.07;;;;;;;17.44;100.00;100080.75;5340523;33;34588;-86
2022/06/10 04:58:15;;;;;;;4.72;4.10;;;;;;;17.53;100.00;100083.97;5342101;33;34212;-86
2022/06/10 05:01:19;;;;;;;4.45;3.87;;;;;;;17.65;100.00;100082.13;5331574;33;33796;-86
2022/06/10 05:04:27;;;;;;;4.60;4.20;;;;;;;17.80;100.00;100081.72;5331191;33;34128;-86
2022/06/10 05:07:30;;;;;;;5.20;4.40;;;;;;;17.86;100.00;100080.78;5338825;33;34500;-85
2022/06/10 05:10:33;;;;;;;5.82;3.95;;;;;;;17.88;100.00;100086.03;5344749;33;34565;-85
2022/06/10 05:13:36;;;;;;;4.40;3.90;;;;;;;18.05;100.00;100083.47;5342832;33;34393;-86
2022/06/10 05:16:39;;;;;;;4.50;3.92;;;;;;;18.02;100.00;100090.19;5342595;33;33655;-86
2022/06/10 05:19:42;;;;;;;4.80;3.80;;;;;;;18.08;100.00;100096.62;5337753;33;33907;-86
2022/06/10 05:22:45;;;;;;;4.37;3.45;;;;;;;18.06;100.00;100094.09;5340154;33;34232;-86
2022/06/10 05:25:48;;;;;;;4.20;3.80;;;;;;;18.09;100.00;100099.09;5344755;33;34272;-85
2022/06/10 05:28:51;;;;;;;5.07;4.57;;;;;;;18.13;100.00;100110.34;5343307;33;34197;-86
2022/06/10 05:31:54;;;;;;;5.03;4.53;;;;;;;18.18;100.00;100112.38;5347551;33;33967;-85
2022/06/10 05:34:57;;;;;;;4.70;4.20;;;;;;;18.19;100.00;100111.28;5350464;33;34467;-85
2022/06/10 05:38:00;;;;;;;6.57;4.62;;;;;;;18.11;100.00;100112.50;5344465;33;33896;-85
2022/06/10 05:42:04;;;;;;;5.20;4.22;;;;;;;18.14;100.00;100112.00;5347656;33;34200;-85
2022/06/10 05:44:26;;;;;;;5.22;4.47;;;;;;;18.16;100.00;100114.50;5355115;33;33905;-86
2022/06/10 05:47:33;;;;;;;5.85;4.82;;;;;;;18.20;100.00;100130.16;5357128;33;34272;-85
2022/06/10 05:50:41;;;;;;;5.12;4.62;;;;;;;18.30;100.00;100135.00;5359682;33;35583;-89
2022/06/10 05:53:43;;;;;;;7.45;4.82;;;;;;;18.43;100.00;100131.22;5334031;33;32377;-89
2022/06/10 05:56:46;;;;;;;5.32;4.65;;;;;;;18.67;100.00;100132.91;5342642;33;34168;-86
2022/06/10 05:59:52;;;;;;;5.65;4.70;;;;;;;18.77;100.00;100146.81;5342307;33;34033;-86
2022/06/10 06:02:54;;;;;;;6.43;4.55;;;;;;;18.93;100.00;100144.44;5343247;33;34983;-86
2022/06/10 06:05:58;;;;;;;5.32;4.40;;;;;;;19.03;100.00;100144.66;5339887;33;34684;-86
2022/06/10 06:09:01;;;;;;;8.70;4.60;;;;;;;19.16;100.00;100144.41;5336855;33;34196;-86
2022/06/10 06:12:04;;;;;;;6.05;4.20;;;;;;;19.26;100.00;100152.81;5336241;33;33706;-85
2022/06/10 06:15:08;;;;;;;6.10;4.57;;;;;;;19.34;100.00;100153.53;5342551;33;34261;-85
2022/06/10 06:18:11;;;;;;;4.85;4.25;;;;;;;19.52;100.00;100156.06;5344430;33;34764;-85
2022/06/10 06:21:13;;;;;;;4.72;3.85;;;;;;;19.63;100.00;100166.13;5355000;33;34196;-85
2022/06/10 06:24:16;;;;;;;4.32;3.60;;;;;;;19.67;100.00;100152.84;5347379;33;33730;-84
2022/06/10 06:27:19;;;;;;;3.92;3.53;;;;;;;19.78;100.00;100159.34;5340674;33;35039;-85
2022/06/10 06:30:32;;;;;;;4.65;3.85;;;;;;;19.93;100.00;100162.37;5346703;33;33969;-85
2022/06/10 06:33:35;;;;;;;4.22;3.53;;;;;;;19.99;100.00;100169.56;5347880;33;35077;-85
2022/06/10 06:36:45;;;;;;;4.35;3.95;;;;;;;20.32;98.58;100166.06;5340688;33;35091;-85
2022/06/10 06:39:48;;;;;;;4.00;3.55;;;;;;;20.75;97.82;100175.53;5328142;33;35233;-85
2022/06/10 06:42:51;;;;;;;3.90;3.45;;;;;;;21.04;93.08;100172.69;5328198;33;32902;-85
2022/06/10 06:45:53;;;;;;;3.55;3.22;;;;;;;21.29;91.53;100175.78;5339942;33;34017;-84
2022/06/10 06:48:57;;;;;;;3.50;3.20;;;;;;;21.42;87.75;100174.59;5331599;33;34880;-85
2022/06/10 06:51:59;;;;;;;3.10;2.80;;;;;;;21.69;84.73;100171.91;5344828;33;33761;-84
2022/06/10 06:55:03;;;;;;;3.30;3.00;;;;;;;21.78;83.45;100180.50;5343968;33;35104;-84
2022/06/10 06:58:10;;;;;;;3.90;3.30;;;;;;;21.94;84.00;100174.12;5344226;33;34773;-84
2022/06/10 07:01:17;;;;;;;2.78;2.58;;;;;;;21.75;82.26;100183.75;5337337;33;33938;-84
2022/06/10 07:04:20;;;;;;;2.87;2.67;;;;;;;21.69;82.68;100184.78;5343805;33;33930;-84
2022/06/10 07:07:23;;;;;;;3.55;2.80;;;;;;;21.71;82.86;100177.97;5338720;33;35269;-84
2022/06/10 07:10:26;;;;;;;4.20;3.08;;;;;;;21.77;81.09;100178.84;5346343;33;34509;-84
2022/06/10 07:13:29;;;;;;;2.78;2.58;;;;;;;22.04;83.42;100175.31;5338788;33;34370;-84
2022/06/10 07:16:32;;;;;;;3.20;3.00;;;;;;;22.31;81.69;100178.88;5333234;33;34173;-85
2022/06/10 07:19:36;;;;;;;3.22;2.90;;;;;;;22.48;79.99;100169.72;5342582;33;34103;-86
2022/06/10 07:22:39;;;;;;;4.55;2.50;;;;;;;22.30;77.11;100176.41;5332014;33;32590;-85
2022/06/10 07:25:42;;;;;;;3.45;2.17;;;;;;;22.26;79.02;100180.75;5341534;33;34047;-85
2022/06/10 07:28:45;;;;;;;2.85;2.55;;;;;;;22.40;76.99;100187.47;5345424;33;33882;-86
2022/06/10 07:31:48;;;;;;;2.22;2.05;;;;;;;22.52;74.22;100182.66;5345778;33;34038;-87
2022/06/10 07:34:51;;;;;;;3.65;3.20;;;;;;;22.59;72.14;100175.00;5353893;33;34431;-87
2022/06/10 07:37:54;;;;;;;1.80;1.70;;;;;;;22.77;70.97;100179.25;5349897;33;34469;-87
2022/06/10 07:44:20;;;;;;;2.97;2.05;;;;;;;23.13;69.96;100176.78;5337913;33;34129;-89
2022/06/10 07:47:23;;;;;;;2.95;2.00;;;;;;;23.38;68.98;100186.25;5345974;33;34634;-87
2022/06/10 07:50:29;;;;;;;2.65;2.10;;;;;;;23.32;66.97;100182.66;5340285;33;34373;-87
2022/06/10 07:53:31;;;;;;;1.92;1.83;;;;;;;23.32;66.56;100193.66;5345863;33;34956;-88
2022/06/10 07:56:37;;;;;;;4.85;2.53;;;;;;;23.43;65.45;100195.34;5344872;33;34785;-88
2022/06/10 07:59:42;;;;;;;3.03;2.50;;;;;;;23.68;64.85;100182.81;5341956;33;33914;-88
2022/06/10 08:02:45;;;;;;;2.00;1.87;;;;;;;23.51;64.81;100199.50;5343310;33;34333;-88
2022/06/10 08:05:50;;;;;;;2.22;2.03;;;;;;;23.70;66.84;100189.72;5346665;33;34006;-88
2022/06/10 08:08:54;;;;;;;3.65;2.33;;;;;;;23.83;63.70;100185.63;5347557;33;35571;-88
2022/06/10 08:11:58;;;;;;;2.33;2.12;;;;;;;24.05;65.40;100192.84;5347386;33;35425;-87
2022/06/10 08:15:00;;;;;;;3.58;2.10;;;;;;;24.20;65.91;100196.44;5333997;33;33834;-88
2022/06/10 08:18:05;;;;;;;2.03;1.83;;;;;;;24.21;64.17;100191.75;5347202;33;34027;-88
2022/06/10 08:24:37;;;;;;;;;;;;;;;24.27;63.83;100198.09;5348131;33;34097;-87
2022/06/10 08:27:40;;;;;;;2.35;1.90;;;;;;;24.03;63.02;100204.09;5349325;33;34974;-88
2022/06/10 08:30:48;;;;;;;4.32;2.25;;;;;;;24.03;62.25;100204.09;5346792;33;35503;-87
2022/06/10 08:33:52;;;;;;;3.05;2.15;;;;;;;24.24;62.79;100206.91;5345811;33;33925;-86
2022/06/10 08:36:56;;;;;;;2.42;1.60;;;;;;;24.40;60.27;100208.56;5326172;33;33189;-87
2022/06/10 08:39:59;;;;;;;2.75;2.22;;;;;;;24.39;60.17;100201.41;5345400;33;34016;-87
2022/06/10 08:43:31;;;;;;;2.42;1.90;;;;;;;24.60;61.68;100205.88;5345331;33;34766;-86
2022/06/10 08:46:35;;;;;;;1.73;1.62;;;;;;;25.14;58.77;100209.16;5344991;33;34562;-87
2022/06/10 08:49:59;;;;;;;3.45;1.70;;;;;;;25.49;57.25;100202.72;5345380;33;34658;-86
2022/06/10 08:53:18;;;;;;;1.95;1.85;;;;;;;25.70;55.46;100207.03;5352815;33;35288;-91
2022/06/10 08:56:46;;;;;;;3.25;2.00;;;;;;;25.72;54.98;100204.00;5339005;33;34355;-87
2022/06/10 08:59:50;;;;;;;4.55;2.30;;;;;;;25.66;55.07;100210.63;5338437;33;33906;-87
2022/06/10 09:03:02;;;;;;;2.65;2.03;;;;;;;25.68;54.87;100203.75;5341584;33;34336;-87
2022/06/10 09:06:12;;;;;;;2.20;1.85;;;;;;;25.83;56.46;100213.06;5340800;33;34750;-86
2022/06/10 09:09:18;;;;;;;1.50;1.40;;;;;;;25.99;55.88;100214.63;5347519;33;34093;-89
2022/06/10 09:12:31;;;;;;;2.45;1.60;;;;;;;26.10;55.32;100216.22;5349872;33;34177;-88
2022/06/10 09:15:42;;;;;;;2.25;1.60;;;;;;;26.05;53.46;100215.44;5337394;33;34213;-88
2022/06/10 09:18:50;;;;;;;2.37;1.92;;;;;;;26.29;54.44;100218.31;5350174;33;34853;-89
2022/06/10 09:22:07;;;;;;;3.72;1.83;;;;;;;26.29;55.36;100210.84;5350480;33;37092;-88
2022/06/10 09:25:23;;;;;;;4.28;2.33;;;;;;;26.41;55.69;100211.34;5354451;33;34203;-88
2022/06/10 09:28:31;;;;;;;3.28;1.70;;;;;;;26.61;54.41;100213.13;5350501;33;34536;-88
2022/06/10 09:31:40;;;;;;;2.75;2.08;;;;;;;26.62;53.54;100216.72;5348277;33;34249;-88
2022/06/10 09:34:58;;;;;;;2.33;2.08;;;;;;;26.59;52.28;100209.84;5344278;33;35267;-87
2022/06/10 09:38:06;;;;;;;2.53;2.00;;;;;;;26.70;52.90;100213.31;5342905;33;34826;-86
2022/06/10 09:41:33;;;;;;;2.40;2.20;;;;;;;26.96;54.18;100211.16;5346769;33;34069;-88
2022/06/10 09:45:03;;;;;;;3.60;2.08;;;;;;;27.13;51.16;100210.72;5351505;33;33958;-88
2022/06/10 09:48:12;;;;;;;2.25;1.90;;;;;;;27.29;51.78;100220.53;5349514;33;35025;-88
2022/06/10 09:51:40;;;;;;;2.65;1.87;;;;;;;27.12;50.12;100214.59;5344622;33;33720;-87
2022/06/10 09:55:01;;;;;;;4.75;2.03;;;;;;;27.09;50.40;100215.19;5334714;33;34012;-86
2022/06/10 09:58:07;;;;;;;3.17;2.25;;;;;;;27.28;51.10;100209.75;5328303;33;33997;-86
2022/06/10 10:01:57;;;;;;;3.87;1.98;;;;;;;27.44;51.70;100215.97;5355296;33;35411;-87
2022/06/10 10:05:27;;;;;;;1.80;1.70;;;;;;;27.49;50.64;100215.88;5335105;33;33488;-87
2022/06/10 10:08:48;;;;;;;1.92;1.67;;;;;;;27.38;51.16;100220.72;5327162;33;34997;-86
2022/06/10 10:12:03;;;;;;;3.05;1.90;;;;;;;27.67;52.52;100217.88;5324699;33;32416;-86
2022/06/10 10:15:09;;;;;;;2.78;2.17;;;;;;;27.74;51.47;100221.09;5357827;33;34315;-86
2022/06/10 10:18:42;;;;;;;2.10;1.90;;;;;;;28.15;50.31;100212.28;5327802;33;33748;-85
2022/06/10 10:22:23;;;;;;;4.40;2.17;;;;;;;28.79;49.05;100229.31;5330268;33;34437;-87
2022/06/10 10:25:27;;;;;;;2.33;2.12;;;;;;;28.76;48.35;100223.56;5347861;33;34277;-87
2022/06/10 10:28:33;;;;;;;1.98;1.60;;;;;;;29.08;49.08;100214.41;5353207;33;34503;-87
2022/06/10 10:31:44;;;;;;;4.18;2.75;;;;;;;29.15;47.35;100221.19;5355466;33;35389;-92
2022/06/10 10:35:03;;;;;;;2.42;2.22;;;;;;;29.24;47.08;100215.75;5350913;33;34536;-88
2022/06/10 10:38:13;;;;;;;2.97;2.00;;;;;;;29.41;46.46;100211.56;5348582;33;33552;-88
2022/06/10 10:41:32;;;;;;;2.10;1.92;;;;;;;29.29;46.57;100223.16;5343950;33;34201;-88
2022/06/10 10:44:42;;;;;;;2.50;2.30;;;;;;;29.68;47.15;100213.53;5351746;33;33867;-88
2022/06/10 10:47:57;;;;;;;2.35;2.00;;;;;;;29.87;44.73;100216.19;5352726;33;34371;-88
2022/06/10 10:51:10;;;;;;;2.47;1.83;;;;;;;29.76;44.86;100215.59;5344739;33;34246;-88
2022/06/10 10:54:35;;;;;;;2.37;2.05;;;;;;;30.00;44.93;100207.00;5347050;33;34612;-88
2022/06/10 10:57:43;;;;;;;6.28;2.53;;;;;;;30.80;44.82;100210.13;5345493;33;34525;-87
2022/06/10 11:00:55;;;;;;;2.03;1.83;;;;;;;30.93;44.21;100209.25;5344643;33;34527;-88
2022/06/10 11:03:59;;;;;;;2.22;1.98;;;;;;;31.68;41.59;100201.06;5341195;33;35080;-88
2022/06/10 11:07:04;;;;;;;3.28;2.25;;;;;;;31.68;41.25;100198.25;5338201;33;34670;-88
2022/06/10 11:10:28;;;;;;;2.17;1.98;;;;;;;31.67;40.89;100200.25;5341583;33;34390;-91
2022/06/10 11:13:34;;;;;;;2.25;2.05;;;;;;;31.93;41.67;100207.84;5340471;33;34417;-92
2022/06/10 11:17:14;;;;;;;2.58;2.37;;;;;;;32.30;41.21;100200.84;5345467;33;34220;-88
2022/06/10 11:20:36;;;;;;;2.50;2.30;;;;;;;32.27;40.35;100188.38;5384094;27;33845;-88
2022/06/10 11:23:55;;;;;;;3.85;1.67;;;;;;;32.54;38.17;100191.19;5367551;33;33388;-88
2022/06/10 11:27:02;;;;;;;2.85;2.03;;;;;;;33.48;35.43;100194.00;5373150;33;34548;-88
2022/06/10 11:30:10;;;;;;;2.65;1.83;;;;;;;33.95;34.66;100188.31;5372490;33;34450;-88
2022/06/10 11:33:40;;;;;;;2.10;1.90;;;;;;;34.83;33.98;100192.84;5374919;33;34035;-88
2022/06/10 11:36:53;;;;;;;2.00;1.75;;;;;;;35.67;32.53;100189.69;5365050;33;35014;-88
2022/06/10 11:40:08;;;;;;;2.12;1.75;;;;;;;36.06;31.71;100185.31;5376833;33;33757;-88
2022/06/10 11:43:31;;;;;;;2.83;2.00;;;;;;;36.73;34.27;100180.03;5375209;33;34168;-88
2022/06/10 11:47:00;;;;;;;2.00;1.77;;;;;;;36.68;30.81;100176.66;5371905;33;33278;-89
2022/06/10 11:50:11;;;;;;;2.28;2.03;;;;;;;36.00;31.76;100177.47;5374981;33;33904;-88
2022/06/10 11:53:38;;;;;;;1.77;1.67;;;;;;;36.32;33.38;100176.47;5373872;33;34343;-88
2022/06/10 12:00:46;;;;;;;2.78;1.85;;;;;;;37.78;30.06;100172.25;5356938;33;33420;-88
2022/06/10 12:03:55;;;;;;;1.70;1.60;;;;;;;36.97;30.91;100170.66;5375318;33;34701;-88
2022/06/10 12:07:10;;;;;;;1.90;1.80;;;;;;;36.66;31.46;100160.22;5378358;33;33378;-88
2022/06/10 12:10:20;;;;;;;1.67;1.58;;;;;;;36.64;33.40;100144.91;5371809;33;34916;-92
2022/06/10 12:13:37;;;;;;;2.00;1.90;;;;;;;37.83;32.53;100141.84;5343869;33;33291;-89
2022/06/10 12:16:43;;;;;;;3.28;1.85;;;;;;;37.98;30.66;100140.19;5353578;33;34157;-88
2022/06/10 12:19:52;;;;;;;1.60;1.50;;;;;;;37.69;30.31;100140.72;5347117;33;34851;-88
2022/06/10 12:23:00;;;;;;;1.65;1.55;;;;;;;38.67;28.51;100140.38;5340215;33;33845;-89
2022/06/10 12:26:27;;;;;;;2.65;2.00;;;;;;;39.39;28.99;100125.53;5345949;33;34274;-88
2022/06/10 12:41:40;;;;;;;2.22;1.48;;;;;;;35.79;33.00;100100.03;5430031;27;19960;-88
2022/06/10 12:44:55;;;;;;;2.17;2.08;;;;;;;35.01;34.21;100112.31;5361874;33;32820;-88
2022/06/10 12:48:11;;;;;;;2.22;2.03;;;;;;;33.61;35.23;100112.84;5374090;33;33782;-88
2022/06/10 12:51:45;;;;;;;1.90;1.80;;;;;;;32.99;35.63;100129.41;5571421;27;33913;-89
2022/06/10 12:59:24;;;;;;;4.10;2.10;;;;;;;31.70;40.36;100126.41;4693556;31;20156;-88
2022/06/10 13:02:43;;;;;;;2.80;2.30;;;;;;;31.24;39.72;100123.03;5419174;27;33992;-89
2022/06/10 13:08:02;;;;;;;1.98;1.87;;;;;;;30.59;40.95;100132.00;5125800;31;14383038;-87
2022/06/10 13:11:36;;;;;;;3.17;1.87;;;;;;;30.59;40.95;100132.00;5591766;26;33955;-87
2022/06/10 13:18:53;;;;;;;2.15;1.95;;;;;;;30.22;44.01;100142.41;4186619;26;20098;-87
2022/06/10 13:21:59;;;;;;;2.25;2.03;;;;;;;32.93;38.46;100129.56;5563937;26;35071;-87
2022/06/10 13:37:23;;;;;;;2.27;2.07;;;;;;;36.34;31.58;100117.25;2453789;30;20134;-87
2022/06/10 13:40:29;;;;;;;2.25;2.00;;;;;;;37.93;28.46;100114.34;5539147;32;34651;-87
2022/06/10 13:43:33;;;;;;;2.78;1.58;;;;;;;39.20;27.00;100115.16;5547146;32;34423;-86
2022/06/10 13:46:37;;;;;;;3.85;2.08;;;;;;;39.55;26.25;100119.72;5544358;32;34342;-87
2022/06/10 13:49:45;;;;;;;1.90;1.80;;;;;;;38.88;26.63;100111.03;5529786;32;34127;-86
2022/06/10 13:53:05;;;;;;;1.75;1.65;;;;;;;39.26;27.04;100114.81;5543915;32;33916;-86
2022/06/10 13:56:13;;;;;;;1.85;1.75;;;;;;;38.06;27.34;100113.88;5543682;32;34077;-86
2022/06/10 13:59:29;;;;;;;2.00;1.80;;;;;;;37.35;28.27;100106.62;5531583;32;33951;-86
2022/06/10 14:02:38;;;;;;;1.90;1.80;;;;;;;36.09;29.25;100113.72;5511923;32;32961;-86
2022/06/10 14:05:42;;;;;;;2.20;2.00;;;;;;;35.11;31.40;100116.69;5524437;32;33580;-86
2022/06/10 14:08:49;;;;;;;2.53;2.10;;;;;;;33.65;34.97;100121.34;5525212;32;34959;-86
2022/06/10 14:12:24;;;;;;;3.45;2.30;;;;;;;32.92;36.76;100124.31;5533771;32;34019;-87
2022/06/10 14:15:33;;;;;;;1.75;1.60;;;;;;;31.93;38.91;100116.78;5533780;32;34848;-86
2022/06/10 14:18:39;;;;;;;2.53;2.33;;;;;;;32.10;38.37;100112.38;5514297;32;32746;-86
2022/06/10 14:21:43;;;;;;;2.03;1.77;;;;;;;31.80;39.06;100101.84;5527056;32;35396;-90
2022/06/10 14:25:08;;;;;;;3.17;2.17;;;;;;;31.51;39.78;100096.09;5531184;32;34702;-90
2022/06/10 14:28:15;;;;;;;2.30;2.12;;;;;;;31.22;41.27;100089.13;5535602;32;34163;-87
2022/06/10 14:31:27;;;;;;;2.53;2.03;;;;;;;30.75;41.43;100090.75;5547165;32;34296;-87
2022/06/10 14:34:30;;;;;;;3.12;2.45;;;;;;;30.71;41.01;100088.59;5548688;32;35169;-87
2022/06/10 14:37:37;;;;;;;3.80;2.70;;;;;;;29.79;43.18;100093.66;5548350;32;35194;-87
2022/06/10 14:40:52;;;;;;;3.08;2.37;;;;;;;29.67;44.81;100101.72;5548542;32;34564;-87
2022/06/10 14:43:58;;;;;;;2.78;2.53;;;;;;;29.61;44.90;100112.09;5548529;32;35462;-87
2022/06/10 14:47:25;;;;;;;3.58;2.72;;;;;;;29.34;44.73;100112.16;5543787;32;34034;-87
2022/06/10 14:50:29;;;;;;;2.58;2.30;;;;;;;29.04;45.51;100117.16;5530921;32;35209;-87
2022/06/10 14:53:34;;;;;;;2.58;2.37;;;;;;;28.74;46.60;100131.59;5501520;32;32597;-87
2022/06/10 14:56:43;;;;;;;3.53;3.00;;;;;;;28.56;47.19;100136.06;5513662;32;34748;-87
2022/06/10 14:59:46;;;;;;;;;;;;;;;28.58;47.07;100150.41;5550476;26;34186;-87
2022/06/10 15:02:49;;;;;;;2.53;2.33;;;;;;;28.37;46.88;100145.19;5596081;26;34136;-87
2022/06/10 15:06:17;;;;;;;2.58;2.40;;;;;;;28.29;46.64;100137.59;5548041;32;34308;-88
2022/06/10 15:09:30;;;;;;;3.28;2.55;;;;;;;28.17;47.05;100135.28;5531485;32;34015;-87
2022/06/10 15:12:33;;;;;;;2.90;2.60;;;;;;;28.15;47.50;100137.53;5582921;26;35419;-90
2022/06/10 15:15:37;;;;;;;3.00;2.70;;;;;;;28.22;47.10;100148.22;5546109;26;35534;-92
2022/06/10 15:18:42;;;;;;;3.47;2.62;;;;;;;28.17;48.83;100162.13;5516694;32;32800;-91
2022/06/10 15:21:49;;;;;;;2.53;2.33;;;;;;;28.22;48.44;100162.87;5532591;32;34116;-88
2022/06/10 15:24:52;;;;;;;2.37;2.12;;;;;;;27.96;48.89;100168.00;5525106;32;33919;-88
2022/06/10 15:27:57;;;;;;;3.03;2.72;;;;;;;27.98;49.01;100174.03;5523540;32;34037;-88
2022/06/10 15:31:01;;;;;;;2.65;2.45;;;;;;;27.95;50.51;100195.97;5541539;32;33928;-87
2022/06/10 15:34:04;;;;;;;2.53;2.33;;;;;;;28.02;49.69;100197.25;5545183;32;35218;-88
2022/06/10 15:40:43;;;;;;;2.58;2.30;;;;;;;27.81;50.65;100191.16;5532149;32;34927;-88
2022/06/10 15:43:47;;;;;;;2.67;2.47;;;;;;;27.71;49.77;100194.03;5517011;32;32184;-87
2022/06/10 15:46:50;;;;;;;2.50;2.30;;;;;;;27.78;49.58;100180.69;5531007;32;34035;-87
2022/06/10 15:49:53;;;;;;;2.70;2.50;;;;;;;27.79;50.36;100167.69;5517020;32;33387;-87
2022/06/10 15:52:57;;;;;;;2.83;2.40;;;;;;;27.73;49.83;100153.06;5531493;32;34935;-87
